sensor_id;sensor_type;location;lat;lon;timestamp;P1;durP1;ratioP1;P2;durP2;ratioP2
44189;SDS011;29856;52.144;5.430;2023-09-19T00:01:44;13.10;;;2.55;;
44189;SDS011;29856;52.144;5.430;2023-09-19T00:04:10;7.68;;;2.13;;
44189;SDS011;29856;52.144;5.430;2023-09-19T00:06:36;7.85;;;2.60;;
44189;SDS011;29856;52.144;5.430;2023-09-19T00:09:02;12.32;;;2.00;;
44189;SDS011;29856;52.144;5.430;2023-09-19T00:11:28;9.35;;;2.33;;
44189;SDS011;29856;52.144;5.430;2023-09-19T00:13:53;9.00;;;2.72;;
44189;SDS011;29856;52.144;5.430;2023-09-19T00:16:19;13.77;;;2.20;;
44189;SDS011;29856;52.144;5.430;2023-09-19T00:18:45;6.40;;;2.00;;
44189;SDS011;29856;52.144;5.430;2023-09-19T00:21:11;8.85;;;2.13;;
44189;SDS011;29856;52.144;5.430;2023-09-19T00:23:37;12.90;;;1.80;;
44189;SDS011;29856;52.144;5.430;2023-09-19T00:26:03;10.65;;;2.45;;
44189;SDS011;29856;52.144;5.430;2023-09-19T00:28:29;11.18;;;2.22;;
44189;SDS011;29856;52.144;5.430;2023-09-19T00:30:54;10.13;;;2.22;;
44189;SDS011;29856;52.144;5.430;2023-09-19T00:33:20;9.35;;;2.25;;
44189;SDS011;29856;52.144;5.430;2023-09-19T00:35:47;5.93;;;1.73;;
44189;SDS011;29856;52.144;5.430;2023-09-19T00:38:13;10.25;;;2.30;;
44189;SDS011;29856;52.144;5.430;2023-09-19T00:40:38;11.27;;;1.95;;
44189;SDS011;29856;52.144;5.430;2023-09-19T00:43:09;6.93;;;2.10;;
44189;SDS011;29856;52.144;5.430;2023-09-19T00:45:35;7.40;;;2.08;;
44189;SDS011;29856;52.144;5.430;2023-09-19T00:48:02;8.40;;;2.10;;
44189;SDS011;29856;52.144;5.430;2023-09-19T00:50:28;6.18;;;1.90;;
44189;SDS011;29856;52.144;5.430;2023-09-19T00:52:53;9.45;;;2.20;;
44189;SDS011;29856;52.144;5.430;2023-09-19T00:55:20;10.68;;;2.10;;
44189;SDS011;29856;52.144;5.430;2023-09-19T00:57:45;7.05;;;1.80;;
44189;SDS011;29856;52.144;5.430;2023-09-19T01:00:11;10.75;;;3.17;;
44189;SDS011;29856;52.144;5.430;2023-09-19T01:02:37;6.68;;;2.28;;
44189;SDS011;29856;52.144;5.430;2023-09-19T01:05:03;8.60;;;1.92;;
44189;SDS011;29856;52.144;5.430;2023-09-19T01:07:30;5.05;;;1.88;;
44189;SDS011;29856;52.144;5.430;2023-09-19T01:09:57;6.88;;;1.77;;
44189;SDS011;29856;52.144;5.430;2023-09-19T01:12:24;10.63;;;2.08;;
44189;SDS011;29856;52.144;5.430;2023-09-19T01:20:51;9.13;;;2.08;;
44189;SDS011;29856;52.144;5.430;2023-09-19T01:23:20;7.10;;;2.00;;
44189;SDS011;29856;52.144;5.430;2023-09-19T01:29:00;7.15;;;2.40;;
44189;SDS011;29856;52.144;5.430;2023-09-19T01:31:37;12.88;;;2.75;;
44189;SDS011;29856;52.144;5.430;2023-09-19T01:34:04;11.75;;;2.35;;
44189;SDS011;29856;52.144;5.430;2023-09-19T01:36:34;8.75;;;2.55;;
44189;SDS011;29856;52.144;5.430;2023-09-19T01:39:04;12.25;;;2.65;;
44189;SDS011;29856;52.144;5.430;2023-09-19T01:41:38;13.05;;;2.50;;
44189;SDS011;29856;52.144;5.430;2023-09-19T01:44:12;11.35;;;2.30;;
44189;SDS011;29856;52.144;5.430;2023-09-19T01:46:49;5.90;;;2.53;;
44189;SDS011;29856;52.144;5.430;2023-09-19T01:49:29;12.10;;;2.63;;
44189;SDS011;29856;52.144;5.430;2023-09-19T01:52:19;10.00;;;2.78;;
44189;SDS011;29856;52.144;5.430;2023-09-19T01:54:48;12.48;;;2.75;;
44189;SDS011;29856;52.144;5.430;2023-09-19T01:57:26;23.25;;;3.88;;
44189;SDS011;29856;52.144;5.430;2023-09-19T01:59:57;11.68;;;2.92;;
44189;SDS011;29856;52.144;5.430;2023-09-19T02:02:31;12.68;;;2.70;;
44189;SDS011;29856;52.144;5.430;2023-09-19T02:05:04;9.57;;;2.90;;
44189;SDS011;29856;52.144;5.430;2023-09-19T02:07:30;18.23;;;3.33;;
44189;SDS011;29856;52.144;5.430;2023-09-19T02:09:56;8.70;;;2.60;;
44189;SDS011;29856;52.144;5.430;2023-09-19T02:12:21;10.30;;;2.30;;
44189;SDS011;29856;52.144;5.430;2023-09-19T02:14:47;8.15;;;2.70;;
44189;SDS011;29856;52.144;5.430;2023-09-19T02:17:12;11.27;;;2.30;;
44189;SDS011;29856;52.144;5.430;2023-09-19T02:19:38;12.50;;;2.30;;
44189;SDS011;29856;52.144;5.430;2023-09-19T02:22:03;9.30;;;2.83;;
44189;SDS011;29856;52.144;5.430;2023-09-19T02:24:29;12.38;;;3.63;;
44189;SDS011;29856;52.144;5.430;2023-09-19T02:26:54;14.82;;;2.63;;
44189;SDS011;29856;52.144;5.430;2023-09-19T02:29:20;11.20;;;2.60;;
44189;SDS011;29856;52.144;5.430;2023-09-19T02:31:45;16.20;;;2.95;;
44189;SDS011;29856;52.144;5.430;2023-09-19T02:34:11;21.83;;;3.40;;
44189;SDS011;29856;52.144;5.430;2023-09-19T02:36:36;16.63;;;2.90;;
44189;SDS011;29856;52.144;5.430;2023-09-19T02:39:01;10.20;;;2.38;;
44189;SDS011;29856;52.144;5.430;2023-09-19T02:41:27;10.88;;;2.28;;
44189;SDS011;29856;52.144;5.430;2023-09-19T02:43:52;15.02;;;2.97;;
44189;SDS011;29856;52.144;5.430;2023-09-19T02:46:18;11.68;;;2.67;;
44189;SDS011;29856;52.144;5.430;2023-09-19T02:48:43;16.95;;;3.55;;
44189;SDS011;29856;52.144;5.430;2023-09-19T02:51:09;18.55;;;3.00;;
44189;SDS011;29856;52.144;5.430;2023-09-19T02:53:34;11.88;;;2.88;;
44189;SDS011;29856;52.144;5.430;2023-09-19T02:56:00;11.05;;;2.67;;
44189;SDS011;29856;52.144;5.430;2023-09-19T02:58:25;14.40;;;2.97;;
44189;SDS011;29856;52.144;5.430;2023-09-19T03:00:51;16.05;;;3.30;;
44189;SDS011;29856;52.144;5.430;2023-09-19T03:03:16;18.00;;;2.75;;
44189;SDS011;29856;52.144;5.430;2023-09-19T03:05:42;12.60;;;3.53;;
44189;SDS011;29856;52.144;5.430;2023-09-19T03:08:08;13.90;;;3.58;;
44189;SDS011;29856;52.144;5.430;2023-09-19T03:10:33;10.45;;;2.80;;
44189;SDS011;29856;52.144;5.430;2023-09-19T03:12:58;18.88;;;3.28;;
44189;SDS011;29856;52.144;5.430;2023-09-19T03:15:24;17.08;;;2.85;;
44189;SDS011;29856;52.144;5.430;2023-09-19T03:17:50;20.77;;;3.50;;
44189;SDS011;29856;52.144;5.430;2023-09-19T03:20:15;13.48;;;3.22;;
44189;SDS011;29856;52.144;5.430;2023-09-19T03:22:41;14.48;;;2.80;;
44189;SDS011;29856;52.144;5.430;2023-09-19T03:25:07;19.40;;;3.35;;
44189;SDS011;29856;52.144;5.430;2023-09-19T03:27:33;20.65;;;3.25;;
44189;SDS011;29856;52.144;5.430;2023-09-19T03:30:03;16.08;;;2.97;;
44189;SDS011;29856;52.144;5.430;2023-09-19T03:32:29;20.15;;;3.15;;
44189;SDS011;29856;52.144;5.430;2023-09-19T03:34:55;14.77;;;2.67;;
44189;SDS011;29856;52.144;5.430;2023-09-19T03:37:20;13.82;;;3.03;;
44189;SDS011;29856;52.144;5.430;2023-09-19T03:39:45;17.45;;;3.45;;
44189;SDS011;29856;52.144;5.430;2023-09-19T03:42:11;15.30;;;2.88;;
44189;SDS011;29856;52.144;5.430;2023-09-19T03:44:36;13.80;;;3.03;;
44189;SDS011;29856;52.144;5.430;2023-09-19T03:47:02;15.68;;;2.90;;
44189;SDS011;29856;52.144;5.430;2023-09-19T03:49:27;19.73;;;3.35;;
44189;SDS011;29856;52.144;5.430;2023-09-19T03:51:53;20.17;;;3.33;;
44189;SDS011;29856;52.144;5.430;2023-09-19T03:54:18;16.92;;;4.40;;
44189;SDS011;29856;52.144;5.430;2023-09-19T03:56:44;13.35;;;3.00;;
44189;SDS011;29856;52.144;5.430;2023-09-19T03:59:09;14.82;;;2.95;;
44189;SDS011;29856;52.144;5.430;2023-09-19T04:01:35;16.05;;;3.03;;
44189;SDS011;29856;52.144;5.430;2023-09-19T04:04:00;19.92;;;3.05;;
44189;SDS011;29856;52.144;5.430;2023-09-19T04:06:26;11.50;;;2.85;;
44189;SDS011;29856;52.144;5.430;2023-09-19T04:08:51;18.35;;;3.08;;
44189;SDS011;29856;52.144;5.430;2023-09-19T04:11:17;19.55;;;3.65;;
44189;SDS011;29856;52.144;5.430;2023-09-19T04:13:42;16.35;;;3.08;;
44189;SDS011;29856;52.144;5.430;2023-09-19T04:16:08;10.43;;;2.78;;
44189;SDS011;29856;52.144;5.430;2023-09-19T04:18:33;15.35;;;3.40;;
44189;SDS011;29856;52.144;5.430;2023-09-19T04:20:59;14.32;;;3.15;;
44189;SDS011;29856;52.144;5.430;2023-09-19T04:23:24;15.15;;;3.10;;
44189;SDS011;29856;52.144;5.430;2023-09-19T04:25:50;19.35;;;3.13;;
44189;SDS011;29856;52.144;5.430;2023-09-19T04:28:15;12.90;;;3.17;;
44189;SDS011;29856;52.144;5.430;2023-09-19T04:30:41;10.70;;;2.90;;
44189;SDS011;29856;52.144;5.430;2023-09-19T04:33:07;11.48;;;2.80;;
44189;SDS011;29856;52.144;5.430;2023-09-19T04:35:32;16.15;;;2.95;;
44189;SDS011;29856;52.144;5.430;2023-09-19T04:37:58;9.38;;;2.65;;
44189;SDS011;29856;52.144;5.430;2023-09-19T04:40:23;13.13;;;2.83;;
44189;SDS011;29856;52.144;5.430;2023-09-19T04:42:58;16.02;;;2.85;;
44189;SDS011;29856;52.144;5.430;2023-09-19T04:45:24;17.40;;;3.67;;
44189;SDS011;29856;52.144;5.430;2023-09-19T04:47:49;14.50;;;3.15;;
44189;SDS011;29856;52.144;5.430;2023-09-19T04:50:15;17.25;;;3.13;;
44189;SDS011;29856;52.144;5.430;2023-09-19T04:52:41;10.27;;;2.65;;
44189;SDS011;29856;52.144;5.430;2023-09-19T04:55:07;11.88;;;2.95;;
44189;SDS011;29856;52.144;5.430;2023-09-19T04:57:34;15.88;;;3.50;;
44189;SDS011;29856;52.144;5.430;2023-09-19T04:59:59;14.55;;;3.00;;
44189;SDS011;29856;52.144;5.430;2023-09-19T05:02:25;13.57;;;2.80;;
44189;SDS011;29856;52.144;5.430;2023-09-19T05:04:53;14.07;;;3.38;;
44189;SDS011;29856;52.144;5.430;2023-09-19T05:07:19;13.15;;;3.33;;
44189;SDS011;29856;52.144;5.430;2023-09-19T05:09:44;19.10;;;3.30;;
44189;SDS011;29856;52.144;5.430;2023-09-19T05:12:10;16.10;;;2.92;;
44189;SDS011;29856;52.144;5.430;2023-09-19T05:14:35;14.23;;;3.33;;
44189;SDS011;29856;52.144;5.430;2023-09-19T05:17:01;17.08;;;2.90;;
44189;SDS011;29856;52.144;5.430;2023-09-19T05:19:26;11.45;;;3.15;;
44189;SDS011;29856;52.144;5.430;2023-09-19T05:21:52;20.33;;;3.90;;
44189;SDS011;29856;52.144;5.430;2023-09-19T05:24:17;11.95;;;2.90;;
44189;SDS011;29856;52.144;5.430;2023-09-19T05:26:42;17.30;;;3.47;;
44189;SDS011;29856;52.144;5.430;2023-09-19T05:29:08;14.75;;;2.88;;
44189;SDS011;29856;52.144;5.430;2023-09-19T05:31:33;13.35;;;2.67;;
44189;SDS011;29856;52.144;5.430;2023-09-19T05:33:59;13.20;;;3.10;;
44189;SDS011;29856;52.144;5.430;2023-09-19T05:36:24;10.90;;;2.70;;
44189;SDS011;29856;52.144;5.430;2023-09-19T05:38:50;15.25;;;2.78;;
44189;SDS011;29856;52.144;5.430;2023-09-19T05:41:15;17.48;;;3.30;;
44189;SDS011;29856;52.144;5.430;2023-09-19T05:43:40;11.82;;;2.65;;
44189;SDS011;29856;52.144;5.430;2023-09-19T05:46:06;17.83;;;3.05;;
44189;SDS011;29856;52.144;5.430;2023-09-19T05:48:32;15.10;;;3.05;;
44189;SDS011;29856;52.144;5.430;2023-09-19T05:50:58;14.30;;;2.50;;
44189;SDS011;29856;52.144;5.430;2023-09-19T05:53:23;14.77;;;3.13;;
44189;SDS011;29856;52.144;5.430;2023-09-19T05:55:48;12.60;;;2.50;;
44189;SDS011;29856;52.144;5.430;2023-09-19T05:58:14;15.45;;;2.53;;
44189;SDS011;29856;52.144;5.430;2023-09-19T06:00:40;16.00;;;2.65;;
44189;SDS011;29856;52.144;5.430;2023-09-19T06:03:05;12.57;;;2.85;;
44189;SDS011;29856;52.144;5.430;2023-09-19T06:05:31;20.75;;;2.83;;
44189;SDS011;29856;52.144;5.430;2023-09-19T06:07:56;11.30;;;2.40;;
44189;SDS011;29856;52.144;5.430;2023-09-19T06:10:22;13.68;;;2.90;;
44189;SDS011;29856;52.144;5.430;2023-09-19T06:12:47;11.98;;;2.85;;
44189;SDS011;29856;52.144;5.430;2023-09-19T06:15:13;14.32;;;3.35;;
44189;SDS011;29856;52.144;5.430;2023-09-19T06:17:39;11.25;;;2.70;;
44189;SDS011;29856;52.144;5.430;2023-09-19T06:20:05;14.23;;;3.03;;
44189;SDS011;29856;52.144;5.430;2023-09-19T06:22:31;18.67;;;3.08;;
44189;SDS011;29856;52.144;5.430;2023-09-19T06:24:57;13.63;;;3.20;;
44189;SDS011;29856;52.144;5.430;2023-09-19T06:27:22;13.00;;;4.18;;
44189;SDS011;29856;52.144;5.430;2023-09-19T06:29:48;11.73;;;2.85;;
44189;SDS011;29856;52.144;5.430;2023-09-19T06:32:13;19.77;;;3.97;;
44189;SDS011;29856;52.144;5.430;2023-09-19T06:34:39;14.63;;;2.85;;
44189;SDS011;29856;52.144;5.430;2023-09-19T06:37:04;23.98;;;3.65;;
44189;SDS011;29856;52.144;5.430;2023-09-19T06:39:30;19.70;;;3.33;;
44189;SDS011;29856;52.144;5.430;2023-09-19T06:41:55;13.45;;;3.08;;
44189;SDS011;29856;52.144;5.430;2023-09-19T06:44:21;10.73;;;2.67;;
44189;SDS011;29856;52.144;5.430;2023-09-19T06:46:46;13.52;;;2.50;;
44189;SDS011;29856;52.144;5.430;2023-09-19T06:49:12;16.80;;;3.15;;
44189;SDS011;29856;52.144;5.430;2023-09-19T06:51:37;11.80;;;3.08;;
44189;SDS011;29856;52.144;5.430;2023-09-19T06:54:03;18.80;;;2.92;;
44189;SDS011;29856;52.144;5.430;2023-09-19T06:56:28;15.02;;;3.10;;
44189;SDS011;29856;52.144;5.430;2023-09-19T06:58:54;14.48;;;3.30;;
44189;SDS011;29856;52.144;5.430;2023-09-19T07:01:19;17.17;;;3.47;;
44189;SDS011;29856;52.144;5.430;2023-09-19T07:03:44;19.73;;;3.45;;
44189;SDS011;29856;52.144;5.430;2023-09-19T07:06:10;17.20;;;3.00;;
44189;SDS011;29856;52.144;5.430;2023-09-19T07:08:35;14.52;;;3.13;;
44189;SDS011;29856;52.144;5.430;2023-09-19T07:11:01;15.82;;;3.45;;
44189;SDS011;29856;52.144;5.430;2023-09-19T07:13:26;18.27;;;3.70;;
44189;SDS011;29856;52.144;5.430;2023-09-19T07:15:52;16.45;;;3.35;;
44189;SDS011;29856;52.144;5.430;2023-09-19T07:18:17;16.25;;;3.30;;
44189;SDS011;29856;52.144;5.430;2023-09-19T07:20:43;13.88;;;3.40;;
44189;SDS011;29856;52.144;5.430;2023-09-19T07:23:09;33.05;;;4.07;;
44189;SDS011;29856;52.144;5.430;2023-09-19T07:25:35;16.77;;;2.80;;
44189;SDS011;29856;52.144;5.430;2023-09-19T07:28:00;17.98;;;3.60;;
44189;SDS011;29856;52.144;5.430;2023-09-19T07:30:26;15.80;;;2.97;;
44189;SDS011;29856;52.144;5.430;2023-09-19T07:32:52;14.82;;;3.33;;
44189;SDS011;29856;52.144;5.430;2023-09-19T07:35:18;16.13;;;2.88;;
44189;SDS011;29856;52.144;5.430;2023-09-19T07:37:44;15.90;;;3.55;;
44189;SDS011;29856;52.144;5.430;2023-09-19T07:40:09;21.73;;;4.30;;
44189;SDS011;29856;52.144;5.430;2023-09-19T07:42:36;15.23;;;3.72;;
44189;SDS011;29856;52.144;5.430;2023-09-19T07:45:01;17.70;;;3.65;;
44189;SDS011;29856;52.144;5.430;2023-09-19T07:47:27;16.83;;;3.17;;
44189;SDS011;29856;52.144;5.430;2023-09-19T07:49:53;20.65;;;4.20;;
44189;SDS011;29856;52.144;5.430;2023-09-19T07:52:18;21.20;;;4.10;;
44189;SDS011;29856;52.144;5.430;2023-09-19T07:54:43;17.77;;;3.83;;
44189;SDS011;29856;52.144;5.430;2023-09-19T07:57:09;16.20;;;3.20;;
44189;SDS011;29856;52.144;5.430;2023-09-19T07:59:35;14.30;;;2.92;;
44189;SDS011;29856;52.144;5.430;2023-09-19T08:02:01;13.45;;;3.38;;
44189;SDS011;29856;52.144;5.430;2023-09-19T08:04:26;16.45;;;3.63;;
44189;SDS011;29856;52.144;5.430;2023-09-19T08:06:52;13.15;;;2.67;;
44189;SDS011;29856;52.144;5.430;2023-09-19T08:09:17;14.60;;;3.15;;
44189;SDS011;29856;52.144;5.430;2023-09-19T08:11:43;25.40;;;3.92;;
44189;SDS011;29856;52.144;5.430;2023-09-19T08:14:08;15.93;;;3.05;;
44189;SDS011;29856;52.144;5.430;2023-09-19T08:16:34;18.17;;;3.92;;
44189;SDS011;29856;52.144;5.430;2023-09-19T08:18:59;17.88;;;3.55;;
44189;SDS011;29856;52.144;5.430;2023-09-19T08:21:24;17.73;;;3.80;;
44189;SDS011;29856;52.144;5.430;2023-09-19T08:23:50;19.47;;;3.33;;
44189;SDS011;29856;52.144;5.430;2023-09-19T08:26:15;19.65;;;4.10;;
44189;SDS011;29856;52.144;5.430;2023-09-19T08:28:41;22.25;;;3.92;;
44189;SDS011;29856;52.144;5.430;2023-09-19T08:31:07;17.33;;;3.83;;
44189;SDS011;29856;52.144;5.430;2023-09-19T08:33:33;18.63;;;4.65;;
44189;SDS011;29856;52.144;5.430;2023-09-19T08:36:00;15.80;;;3.60;;
44189;SDS011;29856;52.144;5.430;2023-09-19T08:38:29;15.98;;;2.80;;
44189;SDS011;29856;52.144;5.430;2023-09-19T08:41:04;17.23;;;4.00;;
44189;SDS011;29856;52.144;5.430;2023-09-19T08:43:31;19.38;;;3.92;;
44189;SDS011;29856;52.144;5.430;2023-09-19T08:45:58;26.63;;;4.97;;
44189;SDS011;29856;52.144;5.430;2023-09-19T08:48:39;17.23;;;3.72;;
44189;SDS011;29856;52.144;5.430;2023-09-19T08:51:18;19.27;;;3.80;;
44189;SDS011;29856;52.144;5.430;2023-09-19T08:53:54;19.55;;;3.78;;
44189;SDS011;29856;52.144;5.430;2023-09-19T08:56:31;17.48;;;3.42;;
44189;SDS011;29856;52.144;5.430;2023-09-19T08:58:57;15.55;;;3.75;;
44189;SDS011;29856;52.144;5.430;2023-09-19T09:01:28;17.52;;;4.63;;
44189;SDS011;29856;52.144;5.430;2023-09-19T09:03:56;16.60;;;3.35;;
44189;SDS011;29856;52.144;5.430;2023-09-19T09:06:22;17.58;;;3.03;;
44189;SDS011;29856;52.144;5.430;2023-09-19T09:08:49;19.88;;;3.45;;
44189;SDS011;29856;52.144;5.430;2023-09-19T09:11:16;14.30;;;2.90;;
44189;SDS011;29856;52.144;5.430;2023-09-19T09:13:41;23.35;;;4.22;;
44189;SDS011;29856;52.144;5.430;2023-09-19T09:16:07;15.73;;;3.78;;
44189;SDS011;29856;52.144;5.430;2023-09-19T09:18:33;12.02;;;2.78;;
44189;SDS011;29856;52.144;5.430;2023-09-19T09:20:58;21.67;;;3.58;;
44189;SDS011;29856;52.144;5.430;2023-09-19T09:23:24;18.17;;;3.35;;
44189;SDS011;29856;52.144;5.430;2023-09-19T09:25:53;14.07;;;3.70;;
44189;SDS011;29856;52.144;5.430;2023-09-19T09:28:20;21.05;;;3.80;;
44189;SDS011;29856;52.144;5.430;2023-09-19T09:30:46;19.08;;;3.40;;
44189;SDS011;29856;52.144;5.430;2023-09-19T09:33:13;15.57;;;3.30;;
44189;SDS011;29856;52.144;5.430;2023-09-19T09:35:48;15.63;;;2.72;;
44189;SDS011;29856;52.144;5.430;2023-09-19T09:38:19;21.92;;;3.35;;
44189;SDS011;29856;52.144;5.430;2023-09-19T09:40:49;23.42;;;3.63;;
44189;SDS011;29856;52.144;5.430;2023-09-19T09:43:28;17.95;;;3.67;;
44189;SDS011;29856;52.144;5.430;2023-09-19T09:46:06;14.55;;;3.00;;
44189;SDS011;29856;52.144;5.430;2023-09-19T09:48:33;13.55;;;3.15;;
44189;SDS011;29856;52.144;5.430;2023-09-19T09:50:59;17.52;;;3.40;;
44189;SDS011;29856;52.144;5.430;2023-09-19T09:55:57;13.68;;;3.08;;
44189;SDS011;29856;52.144;5.430;2023-09-19T09:58:22;13.80;;;3.38;;
44189;SDS011;29856;52.144;5.430;2023-09-19T10:00:58;17.60;;;3.70;;
44189;SDS011;29856;52.144;5.430;2023-09-19T10:03:31;16.40;;;3.20;;
44189;SDS011;29856;52.144;5.430;2023-09-19T10:06:04;16.42;;;3.05;;
44189;SDS011;29856;52.144;5.430;2023-09-19T10:08:34;14.25;;;3.33;;
44189;SDS011;29856;52.144;5.430;2023-09-19T10:10:59;15.27;;;3.47;;
44189;SDS011;29856;52.144;5.430;2023-09-19T10:13:25;14.73;;;3.15;;
44189;SDS011;29856;52.144;5.430;2023-09-19T10:15:53;18.38;;;3.92;;
44189;SDS011;29856;52.144;5.430;2023-09-19T10:18:20;20.50;;;3.25;;
44189;SDS011;29856;52.144;5.430;2023-09-19T10:20:47;17.88;;;2.95;;
44189;SDS011;29856;52.144;5.430;2023-09-19T10:23:13;14.00;;;3.67;;
44189;SDS011;29856;52.144;5.430;2023-09-19T10:25:40;13.88;;;2.63;;
44189;SDS011;29856;52.144;5.430;2023-09-19T10:28:07;12.02;;;2.78;;
44189;SDS011;29856;52.144;5.430;2023-09-19T10:30:37;19.95;;;3.42;;
44189;SDS011;29856;52.144;5.430;2023-09-19T10:33:03;12.85;;;2.85;;
44189;SDS011;29856;52.144;5.430;2023-09-19T10:35:29;13.95;;;2.55;;
44189;SDS011;29856;52.144;5.430;2023-09-19T10:37:57;18.42;;;2.88;;
44189;SDS011;29856;52.144;5.430;2023-09-19T10:40:26;18.75;;;3.88;;
44189;SDS011;29856;52.144;5.430;2023-09-19T10:42:52;13.25;;;3.33;;
44189;SDS011;29856;52.144;5.430;2023-09-19T10:45:20;13.55;;;2.75;;
44189;SDS011;29856;52.144;5.430;2023-09-19T10:47:46;9.80;;;2.80;;
44189;SDS011;29856;52.144;5.430;2023-09-19T10:50:19;12.90;;;2.97;;
44189;SDS011;29856;52.144;5.430;2023-09-19T10:52:45;13.00;;;2.30;;
44189;SDS011;29856;52.144;5.430;2023-09-19T10:55:11;17.85;;;2.85;;
44189;SDS011;29856;52.144;5.430;2023-09-19T10:57:43;8.55;;;2.80;;
44189;SDS011;29856;52.144;5.430;2023-09-19T11:00:09;13.45;;;3.25;;
44189;SDS011;29856;52.144;5.430;2023-09-19T11:02:35;16.20;;;3.53;;
44189;SDS011;29856;52.144;5.430;2023-09-19T11:05:10;11.23;;;2.63;;
44189;SDS011;29856;52.144;5.430;2023-09-19T11:13:28;16.27;;;3.00;;
44189;SDS011;29856;52.144;5.430;2023-09-19T11:21:49;11.68;;;2.35;;
44189;SDS011;29856;52.144;5.430;2023-09-19T11:26:42;9.85;;;2.60;;
44189;SDS011;29856;52.144;5.430;2023-09-19T11:29:42;11.18;;;2.20;;
44189;SDS011;29856;52.144;5.430;2023-09-19T11:32:00;12.73;;;2.40;;
44189;SDS011;29856;52.144;5.430;2023-09-19T11:34:38;10.68;;;2.63;;
44189;SDS011;29856;52.144;5.430;2023-09-19T11:39:40;11.73;;;2.50;;
44189;SDS011;29856;52.144;5.430;2023-09-19T11:42:44;11.95;;;2.92;;
44189;SDS011;29856;52.144;5.430;2023-09-19T11:48:04;12.93;;;2.42;;
44189;SDS011;29856;52.144;5.430;2023-09-19T11:50:31;9.73;;;2.22;;
44189;SDS011;29856;52.144;5.430;2023-09-19T11:52:57;8.70;;;1.90;;
44189;SDS011;29856;52.144;5.430;2023-09-19T11:55:23;9.35;;;2.00;;
44189;SDS011;29856;52.144;5.430;2023-09-19T11:57:55;8.88;;;2.08;;
44189;SDS011;29856;52.144;5.430;2023-09-19T12:00:21;6.75;;;2.33;;
44189;SDS011;29856;52.144;5.430;2023-09-19T12:02:47;8.85;;;2.03;;
44189;SDS011;29856;52.144;5.430;2023-09-19T12:05:27;12.23;;;1.88;;
44189;SDS011;29856;52.144;5.430;2023-09-19T12:07:53;8.13;;;1.80;;
44189;SDS011;29856;52.144;5.430;2023-09-19T12:10:19;10.35;;;1.83;;
44189;SDS011;29856;52.144;5.430;2023-09-19T12:12:48;8.60;;;2.30;;
44189;SDS011;29856;52.144;5.430;2023-09-19T12:15:13;10.93;;;1.88;;
44189;SDS011;29856;52.144;5.430;2023-09-19T12:17:39;8.25;;;1.52;;
44189;SDS011;29856;52.144;5.430;2023-09-19T12:20:06;8.60;;;1.80;;
44189;SDS011;29856;52.144;5.430;2023-09-19T12:22:39;8.02;;;1.90;;
44189;SDS011;29856;52.144;5.430;2023-09-19T12:25:07;8.25;;;1.83;;
44189;SDS011;29856;52.144;5.430;2023-09-19T12:27:41;11.25;;;2.53;;
44189;SDS011;29856;52.144;5.430;2023-09-19T12:30:10;7.28;;;1.88;;
44189;SDS011;29856;52.144;5.430;2023-09-19T12:32:36;9.00;;;2.13;;
44189;SDS011;29856;52.144;5.430;2023-09-19T12:35:02;7.93;;;2.17;;
44189;SDS011;29856;52.144;5.430;2023-09-19T12:37:27;6.80;;;1.67;;
44189;SDS011;29856;52.144;5.430;2023-09-19T12:39:53;7.00;;;1.50;;
44189;SDS011;29856;52.144;5.430;2023-09-19T12:42:27;8.52;;;1.63;;
44189;SDS011;29856;52.144;5.430;2023-09-19T12:44:53;7.13;;;1.60;;
44189;SDS011;29856;52.144;5.430;2023-09-19T12:47:19;9.55;;;1.65;;
44189;SDS011;29856;52.144;5.430;2023-09-19T12:52:36;6.03;;;2.13;;
44189;SDS011;29856;52.144;5.430;2023-09-19T12:55:03;10.88;;;1.88;;
44189;SDS011;29856;52.144;5.430;2023-09-19T12:57:28;8.35;;;1.92;;
44189;SDS011;29856;52.144;5.430;2023-09-19T12:59:54;8.30;;;1.40;;
44189;SDS011;29856;52.144;5.430;2023-09-19T13:02:20;6.00;;;1.30;;
44189;SDS011;29856;52.144;5.430;2023-09-19T13:04:51;6.28;;;1.70;;
44189;SDS011;29856;52.144;5.430;2023-09-19T13:10:08;5.40;;;1.80;;
44189;SDS011;29856;52.144;5.430;2023-09-19T13:12:34;6.45;;;1.20;;
44189;SDS011;29856;52.144;5.430;2023-09-19T13:15:07;7.40;;;1.45;;
44189;SDS011;29856;52.144;5.430;2023-09-19T13:17:43;8.90;;;1.42;;
44189;SDS011;29856;52.144;5.430;2023-09-19T13:20:20;4.88;;;1.60;;
44189;SDS011;29856;52.144;5.430;2023-09-19T13:22:47;5.95;;;1.75;;
44189;SDS011;29856;52.144;5.430;2023-09-19T13:25:16;8.02;;;1.50;;
44189;SDS011;29856;52.144;5.430;2023-09-19T13:27:42;5.03;;;1.60;;
44189;SDS011;29856;52.144;5.430;2023-09-19T13:30:09;6.75;;;1.95;;
44189;SDS011;29856;52.144;5.430;2023-09-19T13:32:35;5.32;;;1.45;;
44189;SDS011;29856;52.144;5.430;2023-09-19T13:35:01;6.68;;;1.50;;
44189;SDS011;29856;52.144;5.430;2023-09-19T13:37:26;7.20;;;1.20;;
44189;SDS011;29856;52.144;5.430;2023-09-19T13:39:52;4.70;;;1.35;;
44189;SDS011;29856;52.144;5.430;2023-09-19T13:42:17;6.88;;;1.10;;
44189;SDS011;29856;52.144;5.430;2023-09-19T13:44:43;8.55;;;1.88;;
44189;SDS011;29856;52.144;5.430;2023-09-19T13:47:08;6.15;;;1.23;;
44189;SDS011;29856;52.144;5.430;2023-09-19T13:49:34;5.68;;;1.42;;
44189;SDS011;29856;52.144;5.430;2023-09-19T13:51:59;4.50;;;1.40;;
44189;SDS011;29856;52.144;5.430;2023-09-19T13:54:25;6.00;;;1.13;;
44189;SDS011;29856;52.144;5.430;2023-09-19T13:56:51;7.43;;;1.60;;
44189;SDS011;29856;52.144;5.430;2023-09-19T13:59:16;4.95;;;1.23;;
44189;SDS011;29856;52.144;5.430;2023-09-19T14:01:41;7.20;;;1.33;;
44189;SDS011;29856;52.144;5.430;2023-09-19T14:04:07;9.45;;;1.73;;
44189;SDS011;29856;52.144;5.430;2023-09-19T14:06:32;4.28;;;1.20;;
44189;SDS011;29856;52.144;5.430;2023-09-19T14:08:58;9.73;;;1.33;;
44189;SDS011;29856;52.144;5.430;2023-09-19T14:11:23;10.52;;;1.85;;
44189;SDS011;29856;52.144;5.430;2023-09-19T14:13:49;3.03;;;1.30;;
44189;SDS011;29856;52.144;5.430;2023-09-19T14:16:16;4.57;;;1.40;;
44189;SDS011;29856;52.144;5.430;2023-09-19T14:18:41;7.85;;;1.42;;
44189;SDS011;29856;52.144;5.430;2023-09-19T14:21:07;11.25;;;1.52;;
44189;SDS011;29856;52.144;5.430;2023-09-19T14:23:36;4.65;;;1.27;;
44189;SDS011;29856;52.144;5.430;2023-09-19T14:26:02;5.88;;;1.30;;
44189;SDS011;29856;52.144;5.430;2023-09-19T14:28:27;6.32;;;1.65;;
44189;SDS011;29856;52.144;5.430;2023-09-19T14:30:53;5.60;;;1.70;;
44189;SDS011;29856;52.144;5.430;2023-09-19T14:33:18;4.32;;;1.65;;
44189;SDS011;29856;52.144;5.430;2023-09-19T14:35:43;5.65;;;1.60;;
44189;SDS011;29856;52.144;5.430;2023-09-19T14:38:09;4.95;;;1.52;;
44189;SDS011;29856;52.144;5.430;2023-09-19T14:40:34;5.35;;;1.67;;
44189;SDS011;29856;52.144;5.430;2023-09-19T14:43:00;6.70;;;1.75;;
44189;SDS011;29856;52.144;5.430;2023-09-19T14:45:25;4.75;;;1.55;;
44189;SDS011;29856;52.144;5.430;2023-09-19T14:47:51;8.23;;;1.92;;
44189;SDS011;29856;52.144;5.430;2023-09-19T14:50:16;7.38;;;1.90;;
44189;SDS011;29856;52.144;5.430;2023-09-19T14:52:42;5.25;;;1.92;;
44189;SDS011;29856;52.144;5.430;2023-09-19T14:55:07;8.68;;;1.80;;
44189;SDS011;29856;52.144;5.430;2023-09-19T14:57:33;7.78;;;1.92;;
44189;SDS011;29856;52.144;5.430;2023-09-19T14:59:58;5.03;;;1.45;;
44189;SDS011;29856;52.144;5.430;2023-09-19T15:02:24;8.90;;;2.65;;
44189;SDS011;29856;52.144;5.430;2023-09-19T15:04:49;13.18;;;2.25;;
44189;SDS011;29856;52.144;5.430;2023-09-19T15:07:15;5.05;;;2.03;;
44189;SDS011;29856;52.144;5.430;2023-09-19T15:09:43;7.35;;;2.28;;
44189;SDS011;29856;52.144;5.430;2023-09-19T15:12:09;8.95;;;2.20;;
44189;SDS011;29856;52.144;5.430;2023-09-19T15:14:34;5.47;;;1.80;;